首页
METAR-TAF:

METAR-TAF

机场 :

博韦, 法国

纬度: 49-28N, 经度: 002-07E, 海拔: 109米

当前天气观测

该预报发布于27分钟前的03:00 UTC
风速3节,风向东转东北,在东北东南之间变化
温度 17°C
湿度 77%
气压 1007 hPa
能见度10公里或以上
1500米以下无云,无积雨云

METAR: LFOB 190300Z AUTO 06003KT 040V140 CAVOK 17/13 Q1007 NOSIG

时间: 05:27 (03:27 UTC)

预报

该预报发布于4小时和27分钟前的23:00 UTC
预报有效从19日的 00点(UTC)到 19日的 24点(UTC)
风速7节,风向东转东南
能见度10公里或以上
1500米以下无云,无积雨云
成为
从 19日的 06点(UTC)到 19日的 08点(UTC)
风速10节,风向南转西南
几率 30% :
短暂存在
从 19日的 15点(UTC)到 19日的 17点(UTC)
风速15节,风向西转西北,有时为25节阵风
能見度: 2000
多云层高于3000英尺, 积雨云.
阵雨
短暂存在
从 19日的 22点(UTC)到 19日的 24点(UTC)
多云层高于1200英尺

TAF: LFOB 182300Z 1900/1924 12007KT CAVOK BECMG 1906/1908 20010KT PROB30 TEMPO 1915/1917 30015G25KT 2000 SHRA BKN030CB TEMPO 1922/1924 BKN012

超过4000个机场的气象观测和天气预报(METAR&TAF报告)。

可查询的气象台以黄色和红色小点在地图上表示。

将鼠标移到小点上方,可查看气象台名称。

然后点击查看天气观测和预报。

如需切换地图:点击带黑十字的绿色按钮放大地图;点击带横线的绿色按钮缩小地图;或者点击绿色箭头查看邻近地区的地图。


METAR-TAF: